sensor_id;sensor_type;location;lat;lon;timestamp;P1;durP1;ratioP1;P2;durP2;ratioP2
422;SDS011;198;48.752;9.180;2023-10-31T00:01:59;1.30;;;0.90;;
422;SDS011;198;48.752;9.180;2023-10-31T00:04:25;4.30;;;0.90;;
422;SDS011;198;48.752;9.180;2023-10-31T00:06:51;3.43;;;1.10;;
422;SDS011;198;48.752;9.180;2023-10-31T00:09:16;1.07;;;0.87;;
422;SDS011;198;48.752;9.180;2023-10-31T00:11:42;1.77;;;0.80;;
422;SDS011;198;48.752;9.180;2023-10-31T00:14:09;1.13;;;0.60;;
422;SDS011;198;48.752;9.180;2023-10-31T00:16:34;4.00;;;1.10;;
422;SDS011;198;48.752;9.180;2023-10-31T00:19:00;3.90;;;0.80;;
422;SDS011;198;48.752;9.180;2023-10-31T00:21:25;0.90;;;0.80;;
422;SDS011;198;48.752;9.180;2023-10-31T00:23:51;1.80;;;1.20;;
422;SDS011;198;48.752;9.180;2023-10-31T00:26:16;0.90;;;0.90;;
422;SDS011;198;48.752;9.180;2023-10-31T00:28:42;1.70;;;0.80;;
422;SDS011;198;48.752;9.180;2023-10-31T00:31:07;0.60;;;0.50;;
422;SDS011;198;48.752;9.180;2023-10-31T00:33:37;0.70;;;0.60;;
422;SDS011;198;48.752;9.180;2023-10-31T00:36:03;1.27;;;0.60;;
422;SDS011;198;48.752;9.180;2023-10-31T00:38:29;4.67;;;0.97;;
422;SDS011;198;48.752;9.180;2023-10-31T00:40:54;0.60;;;0.50;;
422;SDS011;198;48.752;9.180;2023-10-31T00:43:20;0.87;;;0.60;;
422;SDS011;198;48.752;9.180;2023-10-31T00:45:45;0.60;;;0.60;;
422;SDS011;198;48.752;9.180;2023-10-31T00:48:11;2.63;;;0.70;;
422;SDS011;198;48.752;9.180;2023-10-31T00:50:36;0.90;;;0.70;;
422;SDS011;198;48.752;9.180;2023-10-31T00:53:02;4.40;;;0.87;;
422;SDS011;198;48.752;9.180;2023-10-31T00:55:27;0.70;;;0.60;;
422;SDS011;198;48.752;9.180;2023-10-31T00:57:53;0.70;;;0.60;;
422;SDS011;198;48.752;9.180;2023-10-31T01:00:18;0.60;;;0.60;;
422;SDS011;198;48.752;9.180;2023-10-31T01:02:44;0.60;;;0.60;;
422;SDS011;198;48.752;9.180;2023-10-31T01:05:10;0.77;;;0.70;;
422;SDS011;198;48.752;9.180;2023-10-31T01:07:36;0.63;;;0.60;;
422;SDS011;198;48.752;9.180;2023-10-31T01:10:02;8.23;;;0.80;;
422;SDS011;198;48.752;9.180;2023-10-31T01:12:28;1.43;;;0.80;;
422;SDS011;198;48.752;9.180;2023-10-31T01:14:54;1.03;;;0.50;;
422;SDS011;198;48.752;9.180;2023-10-31T01:17:20;0.73;;;0.67;;
422;SDS011;198;48.752;9.180;2023-10-31T01:19:46;7.07;;;0.63;;
422;SDS011;198;48.752;9.180;2023-10-31T01:22:12;0.83;;;0.60;;
422;SDS011;198;48.752;9.180;2023-10-31T01:24:37;0.60;;;0.50;;
422;SDS011;198;48.752;9.180;2023-10-31T01:27:03;0.87;;;0.40;;
422;SDS011;198;48.752;9.180;2023-10-31T01:29:28;0.97;;;0.53;;
422;SDS011;198;48.752;9.180;2023-10-31T01:31:54;0.80;;;0.60;;
422;SDS011;198;48.752;9.180;2023-10-31T01:34:20;0.67;;;0.60;;
422;SDS011;198;48.752;9.180;2023-10-31T01:36:46;6.20;;;0.87;;
422;SDS011;198;48.752;9.180;2023-10-31T01:39:11;0.83;;;0.73;;
422;SDS011;198;48.752;9.180;2023-10-31T01:41:37;0.80;;;0.70;;
422;SDS011;198;48.752;9.180;2023-10-31T01:44:05;1.00;;;0.90;;
422;SDS011;198;48.752;9.180;2023-10-31T01:46:31;0.70;;;0.60;;
422;SDS011;198;48.752;9.180;2023-10-31T01:48:56;0.50;;;0.50;;
422;SDS011;198;48.752;9.180;2023-10-31T01:51:22;2.70;;;0.70;;
422;SDS011;198;48.752;9.180;2023-10-31T01:53:48;2.10;;;0.63;;
422;SDS011;198;48.752;9.180;2023-10-31T01:56:14;2.60;;;0.60;;
422;SDS011;198;48.752;9.180;2023-10-31T01:58:39;0.60;;;0.53;;
422;SDS011;198;48.752;9.180;2023-10-31T02:01:06;2.93;;;0.50;;
422;SDS011;198;48.752;9.180;2023-10-31T02:03:32;0.60;;;0.50;;
422;SDS011;198;48.752;9.180;2023-10-31T02:05:58;0.60;;;0.50;;
422;SDS011;198;48.752;9.180;2023-10-31T02:08:24;1.43;;;0.50;;
422;SDS011;198;48.752;9.180;2023-10-31T02:10:50;1.77;;;0.60;;
422;SDS011;198;48.752;9.180;2023-10-31T02:13:16;0.90;;;0.60;;
422;SDS011;198;48.752;9.180;2023-10-31T02:15:43;3.83;;;0.57;;
422;SDS011;198;48.752;9.180;2023-10-31T02:18:09;1.70;;;0.57;;
422;SDS011;198;48.752;9.180;2023-10-31T02:20:35;0.60;;;0.50;;
422;SDS011;198;48.752;9.180;2023-10-31T02:23:02;1.80;;;1.17;;
422;SDS011;198;48.752;9.180;2023-10-31T02:25:28;0.73;;;0.60;;
422;SDS011;198;48.752;9.180;2023-10-31T02:27:53;2.67;;;0.50;;
422;SDS011;198;48.752;9.180;2023-10-31T02:30:19;0.90;;;0.80;;
422;SDS011;198;48.752;9.180;2023-10-31T02:32:45;2.83;;;0.70;;
422;SDS011;198;48.752;9.180;2023-10-31T02:35:10;1.13;;;0.80;;
422;SDS011;198;48.752;9.180;2023-10-31T02:37:36;0.63;;;0.47;;
422;SDS011;198;48.752;9.180;2023-10-31T02:40:02;0.70;;;0.67;;
422;SDS011;198;48.752;9.180;2023-10-31T02:42:28;2.07;;;0.90;;
422;SDS011;198;48.752;9.180;2023-10-31T02:44:54;0.70;;;0.60;;
422;SDS011;198;48.752;9.180;2023-10-31T02:47:19;0.93;;;0.70;;
422;SDS011;198;48.752;9.180;2023-10-31T02:49:45;2.40;;;0.60;;
422;SDS011;198;48.752;9.180;2023-10-31T02:52:11;1.60;;;0.90;;
422;SDS011;198;48.752;9.180;2023-10-31T02:54:36;0.73;;;0.63;;
422;SDS011;198;48.752;9.180;2023-10-31T02:57:02;1.00;;;0.60;;
422;SDS011;198;48.752;9.180;2023-10-31T02:59:28;0.73;;;0.70;;
422;SDS011;198;48.752;9.180;2023-10-31T03:01:53;2.50;;;0.70;;
422;SDS011;198;48.752;9.180;2023-10-31T03:04:21;0.90;;;0.80;;
422;SDS011;198;48.752;9.180;2023-10-31T03:06:46;1.17;;;0.70;;
422;SDS011;198;48.752;9.180;2023-10-31T03:09:12;1.30;;;0.70;;
422;SDS011;198;48.752;9.180;2023-10-31T03:11:37;0.80;;;0.70;;
422;SDS011;198;48.752;9.180;2023-10-31T03:14:02;1.00;;;0.90;;
422;SDS011;198;48.752;9.180;2023-10-31T03:16:28;1.37;;;0.87;;
422;SDS011;198;48.752;9.180;2023-10-31T03:18:53;0.50;;;0.50;;
422;SDS011;198;48.752;9.180;2023-10-31T03:21:19;2.20;;;0.70;;
422;SDS011;198;48.752;9.180;2023-10-31T03:23:48;2.30;;;0.80;;
422;SDS011;198;48.752;9.180;2023-10-31T03:26:15;3.17;;;1.67;;
422;SDS011;198;48.752;9.180;2023-10-31T03:28:44;6.23;;;2.20;;
422;SDS011;198;48.752;9.180;2023-10-31T03:31:10;7.50;;;2.57;;
422;SDS011;198;48.752;9.180;2023-10-31T03:33:35;5.90;;;2.83;;
422;SDS011;198;48.752;9.180;2023-10-31T03:36:01;3.60;;;1.77;;
422;SDS011;198;48.752;9.180;2023-10-31T03:38:27;6.80;;;2.10;;
422;SDS011;198;48.752;9.180;2023-10-31T03:40:52;6.77;;;2.03;;
422;SDS011;198;48.752;9.180;2023-10-31T03:43:18;7.90;;;1.57;;
422;SDS011;198;48.752;9.180;2023-10-31T03:45:45;5.60;;;1.67;;
422;SDS011;198;48.752;9.180;2023-10-31T03:48:12;2.20;;;1.53;;
422;SDS011;198;48.752;9.180;2023-10-31T03:50:37;1.47;;;1.03;;
422;SDS011;198;48.752;9.180;2023-10-31T03:53:03;2.27;;;1.70;;
422;SDS011;198;48.752;9.180;2023-10-31T03:55:28;3.27;;;1.33;;
422;SDS011;198;48.752;9.180;2023-10-31T03:57:55;7.50;;;1.60;;
422;SDS011;198;48.752;9.180;2023-10-31T04:00:21;2.30;;;1.43;;
422;SDS011;198;48.752;9.180;2023-10-31T04:02:46;2.30;;;1.20;;
422;SDS011;198;48.752;9.180;2023-10-31T04:05:12;4.53;;;1.67;;
422;SDS011;198;48.752;9.180;2023-10-31T04:07:37;3.50;;;1.63;;
422;SDS011;198;48.752;9.180;2023-10-31T04:10:03;1.37;;;1.27;;
422;SDS011;198;48.752;9.180;2023-10-31T04:12:29;1.43;;;1.43;;
422;SDS011;198;48.752;9.180;2023-10-31T04:14:54;1.40;;;1.30;;
422;SDS011;198;48.752;9.180;2023-10-31T04:17:20;2.70;;;1.30;;
422;SDS011;198;48.752;9.180;2023-10-31T04:19:45;1.13;;;1.07;;
422;SDS011;198;48.752;9.180;2023-10-31T04:22:11;1.80;;;1.20;;
422;SDS011;198;48.752;9.180;2023-10-31T04:24:36;1.30;;;1.20;;
422;SDS011;198;48.752;9.180;2023-10-31T04:27:02;2.60;;;1.23;;
422;SDS011;198;48.752;9.180;2023-10-31T04:29:27;1.20;;;1.10;;
422;SDS011;198;48.752;9.180;2023-10-31T04:31:53;1.00;;;0.90;;
422;SDS011;198;48.752;9.180;2023-10-31T04:34:18;3.80;;;1.20;;
422;SDS011;198;48.752;9.180;2023-10-31T04:36:44;1.30;;;1.30;;
422;SDS011;198;48.752;9.180;2023-10-31T04:39:10;5.40;;;1.20;;
422;SDS011;198;48.752;9.180;2023-10-31T04:41:35;3.10;;;0.90;;
422;SDS011;198;48.752;9.180;2023-10-31T04:44:02;1.93;;;1.20;;
422;SDS011;198;48.752;9.180;2023-10-31T04:46:28;1.73;;;0.97;;
422;SDS011;198;48.752;9.180;2023-10-31T04:48:53;1.17;;;0.80;;
422;SDS011;198;48.752;9.180;2023-10-31T04:51:19;1.23;;;0.83;;
422;SDS011;198;48.752;9.180;2023-10-31T04:53:44;3.17;;;1.00;;
422;SDS011;198;48.752;9.180;2023-10-31T04:56:13;1.80;;;0.80;;
422;SDS011;198;48.752;9.180;2023-10-31T04:58:41;0.80;;;0.67;;
422;SDS011;198;48.752;9.180;2023-10-31T05:01:10;0.67;;;0.60;;
422;SDS011;198;48.752;9.180;2023-10-31T05:03:36;1.90;;;0.87;;
422;SDS011;198;48.752;9.180;2023-10-31T05:06:02;2.73;;;1.20;;
422;SDS011;198;48.752;9.180;2023-10-31T05:08:29;2.60;;;0.80;;
422;SDS011;198;48.752;9.180;2023-10-31T05:10:55;0.83;;;0.77;;
422;SDS011;198;48.752;9.180;2023-10-31T05:13:20;1.03;;;0.90;;
422;SDS011;198;48.752;9.180;2023-10-31T05:15:46;1.63;;;0.73;;
422;SDS011;198;48.752;9.180;2023-10-31T05:18:11;8.87;;;0.97;;
422;SDS011;198;48.752;9.180;2023-10-31T05:20:37;7.33;;;1.00;;
422;SDS011;198;48.752;9.180;2023-10-31T05:23:02;0.87;;;0.53;;
422;SDS011;198;48.752;9.180;2023-10-31T05:25:28;1.53;;;0.77;;
422;SDS011;198;48.752;9.180;2023-10-31T05:27:54;2.50;;;0.80;;
422;SDS011;198;48.752;9.180;2023-10-31T05:30:19;3.40;;;1.00;;
422;SDS011;198;48.752;9.180;2023-10-31T05:32:45;3.07;;;0.90;;
422;SDS011;198;48.752;9.180;2023-10-31T05:35:11;0.80;;;0.70;;
422;SDS011;198;48.752;9.180;2023-10-31T05:37:37;3.07;;;0.63;;
422;SDS011;198;48.752;9.180;2023-10-31T05:40:02;0.77;;;0.67;;
422;SDS011;198;48.752;9.180;2023-10-31T05:42:28;0.70;;;0.60;;
422;SDS011;198;48.752;9.180;2023-10-31T05:44:54;2.20;;;0.80;;
422;SDS011;198;48.752;9.180;2023-10-31T05:47:20;0.70;;;0.60;;
422;SDS011;198;48.752;9.180;2023-10-31T05:49:46;1.00;;;0.90;;
422;SDS011;198;48.752;9.180;2023-10-31T05:52:12;1.00;;;0.73;;
422;SDS011;198;48.752;9.180;2023-10-31T05:54:37;4.73;;;0.60;;
422;SDS011;198;48.752;9.180;2023-10-31T05:57:03;0.97;;;0.70;;
422;SDS011;198;48.752;9.180;2023-10-31T05:59:28;1.13;;;0.90;;
422;SDS011;198;48.752;9.180;2023-10-31T06:01:54;1.80;;;1.00;;
422;SDS011;198;48.752;9.180;2023-10-31T06:04:20;1.93;;;0.80;;
422;SDS011;198;48.752;9.180;2023-10-31T06:06:45;1.27;;;0.87;;
422;SDS011;198;48.752;9.180;2023-10-31T06:09:11;0.70;;;0.60;;
422;SDS011;198;48.752;9.180;2023-10-31T06:11:39;0.50;;;0.50;;
422;SDS011;198;48.752;9.180;2023-10-31T06:14:08;3.00;;;0.60;;
422;SDS011;198;48.752;9.180;2023-10-31T06:16:39;0.77;;;0.60;;
422;SDS011;198;48.752;9.180;2023-10-31T06:19:05;0.63;;;0.60;;
422;SDS011;198;48.752;9.180;2023-10-31T06:21:31;0.70;;;0.60;;
422;SDS011;198;48.752;9.180;2023-10-31T06:23:56;0.87;;;0.77;;
422;SDS011;198;48.752;9.180;2023-10-31T06:26:22;0.73;;;0.70;;
422;SDS011;198;48.752;9.180;2023-10-31T06:28:47;4.00;;;0.70;;
422;SDS011;198;48.752;9.180;2023-10-31T06:31:13;0.80;;;0.80;;
422;SDS011;198;48.752;9.180;2023-10-31T06:33:38;0.80;;;0.70;;
422;SDS011;198;48.752;9.180;2023-10-31T06:36:04;1.33;;;0.90;;
422;SDS011;198;48.752;9.180;2023-10-31T06:38:31;4.70;;;0.73;;
422;SDS011;198;48.752;9.180;2023-10-31T06:40:57;2.40;;;1.20;;
422;SDS011;198;48.752;9.180;2023-10-31T06:43:25;1.03;;;0.80;;
422;SDS011;198;48.752;9.180;2023-10-31T06:45:54;0.80;;;0.70;;
422;SDS011;198;48.752;9.180;2023-10-31T06:48:20;3.27;;;1.00;;
422;SDS011;198;48.752;9.180;2023-10-31T06:50:45;1.47;;;0.67;;
422;SDS011;198;48.752;9.180;2023-10-31T06:53:11;0.83;;;0.80;;
422;SDS011;198;48.752;9.180;2023-10-31T06:55:36;1.00;;;0.77;;
422;SDS011;198;48.752;9.180;2023-10-31T06:58:02;1.03;;;1.00;;
422;SDS011;198;48.752;9.180;2023-10-31T07:00:27;2.10;;;0.80;;
422;SDS011;198;48.752;9.180;2023-10-31T07:02:53;0.93;;;0.70;;
422;SDS011;198;48.752;9.180;2023-10-31T07:05:18;1.23;;;0.70;;
422;SDS011;198;48.752;9.180;2023-10-31T07:07:45;0.80;;;0.70;;
422;SDS011;198;48.752;9.180;2023-10-31T07:10:11;1.07;;;0.90;;
422;SDS011;198;48.752;9.180;2023-10-31T07:12:36;1.20;;;1.00;;
422;SDS011;198;48.752;9.180;2023-10-31T07:15:02;1.53;;;1.03;;
422;SDS011;198;48.752;9.180;2023-10-31T07:17:28;2.37;;;1.00;;
422;SDS011;198;48.752;9.180;2023-10-31T07:19:55;4.77;;;1.10;;
422;SDS011;198;48.752;9.180;2023-10-31T07:22:20;1.17;;;0.70;;
422;SDS011;198;48.752;9.180;2023-10-31T07:24:47;0.77;;;0.73;;
422;SDS011;198;48.752;9.180;2023-10-31T07:27:13;1.27;;;1.17;;
422;SDS011;198;48.752;9.180;2023-10-31T07:29:39;3.90;;;1.00;;
422;SDS011;198;48.752;9.180;2023-10-31T07:32:05;1.10;;;1.00;;
422;SDS011;198;48.752;9.180;2023-10-31T07:34:31;1.13;;;1.03;;
422;SDS011;198;48.752;9.180;2023-10-31T07:36:57;1.17;;;1.00;;
422;SDS011;198;48.752;9.180;2023-10-31T07:39:22;1.50;;;1.10;;
422;SDS011;198;48.752;9.180;2023-10-31T07:41:48;1.20;;;0.70;;
422;SDS011;198;48.752;9.180;2023-10-31T07:44:13;5.80;;;1.03;;
422;SDS011;198;48.752;9.180;2023-10-31T07:46:39;1.13;;;0.90;;
422;SDS011;198;48.752;9.180;2023-10-31T07:49:04;2.30;;;1.30;;
422;SDS011;198;48.752;9.180;2023-10-31T07:51:30;3.93;;;0.70;;
422;SDS011;198;48.752;9.180;2023-10-31T07:53:56;2.07;;;0.87;;
422;SDS011;198;48.752;9.180;2023-10-31T07:56:23;0.90;;;0.80;;
422;SDS011;198;48.752;9.180;2023-10-31T07:58:50;1.40;;;1.00;;
422;SDS011;198;48.752;9.180;2023-10-31T08:01:17;1.40;;;0.80;;
422;SDS011;198;48.752;9.180;2023-10-31T08:03:43;3.27;;;1.00;;
422;SDS011;198;48.752;9.180;2023-10-31T08:06:10;2.40;;;1.00;;
422;SDS011;198;48.752;9.180;2023-10-31T08:08:36;1.50;;;0.97;;
422;SDS011;198;48.752;9.180;2023-10-31T08:11:01;1.17;;;1.10;;
422;SDS011;198;48.752;9.180;2023-10-31T08:13:27;2.10;;;0.60;;
422;SDS011;198;48.752;9.180;2023-10-31T08:15:53;1.03;;;0.70;;
422;SDS011;198;48.752;9.180;2023-10-31T08:18:19;4.53;;;1.23;;
422;SDS011;198;48.752;9.180;2023-10-31T08:20:44;0.83;;;0.73;;
422;SDS011;198;48.752;9.180;2023-10-31T08:23:13;1.27;;;0.80;;
422;SDS011;198;48.752;9.180;2023-10-31T08:25:39;1.10;;;1.00;;
422;SDS011;198;48.752;9.180;2023-10-31T08:28:04;1.10;;;0.80;;
422;SDS011;198;48.752;9.180;2023-10-31T08:30:30;1.40;;;0.90;;
422;SDS011;198;48.752;9.180;2023-10-31T08:32:56;2.60;;;0.90;;
422;SDS011;198;48.752;9.180;2023-10-31T08:35:21;0.80;;;0.70;;
422;SDS011;198;48.752;9.180;2023-10-31T08:37:47;1.17;;;0.90;;
422;SDS011;198;48.752;9.180;2023-10-31T08:40:12;0.70;;;0.60;;
422;SDS011;198;48.752;9.180;2023-10-31T08:42:38;0.80;;;0.70;;
422;SDS011;198;48.752;9.180;2023-10-31T08:45:03;1.90;;;1.00;;
422;SDS011;198;48.752;9.180;2023-10-31T08:47:29;0.90;;;0.80;;
422;SDS011;198;48.752;9.180;2023-10-31T08:49:55;1.27;;;0.80;;
422;SDS011;198;48.752;9.180;2023-10-31T08:52:20;2.10;;;0.80;;
422;SDS011;198;48.752;9.180;2023-10-31T08:54:47;1.20;;;0.80;;
422;SDS011;198;48.752;9.180;2023-10-31T08:57:12;0.97;;;0.87;;
422;SDS011;198;48.752;9.180;2023-10-31T08:59:38;0.93;;;0.60;;
422;SDS011;198;48.752;9.180;2023-10-31T09:02:04;5.80;;;0.90;;
422;SDS011;198;48.752;9.180;2023-10-31T09:04:30;1.33;;;0.73;;
422;SDS011;198;48.752;9.180;2023-10-31T09:06:56;1.13;;;1.00;;
422;SDS011;198;48.752;9.180;2023-10-31T09:09:21;8.33;;;1.00;;
422;SDS011;198;48.752;9.180;2023-10-31T09:11:47;5.03;;;0.93;;
422;SDS011;198;48.752;9.180;2023-10-31T09:14:12;3.20;;;0.87;;
422;SDS011;198;48.752;9.180;2023-10-31T09:16:38;8.90;;;1.00;;
422;SDS011;198;48.752;9.180;2023-10-31T09:19:03;1.60;;;1.30;;
422;SDS011;198;48.752;9.180;2023-10-31T09:21:29;2.87;;;1.17;;
422;SDS011;198;48.752;9.180;2023-10-31T09:23:54;3.27;;;1.10;;
422;SDS011;198;48.752;9.180;2023-10-31T09:26:20;3.90;;;0.90;;
422;SDS011;198;48.752;9.180;2023-10-31T09:28:45;0.80;;;0.70;;
422;SDS011;198;48.752;9.180;2023-10-31T09:31:17;1.43;;;0.73;;
422;SDS011;198;48.752;9.180;2023-10-31T09:33:43;1.70;;;0.60;;
422;SDS011;198;48.752;9.180;2023-10-31T09:36:10;2.10;;;0.77;;
422;SDS011;198;48.752;9.180;2023-10-31T09:38:36;6.20;;;1.47;;
422;SDS011;198;48.752;9.180;2023-10-31T09:41:01;1.27;;;0.90;;
422;SDS011;198;48.752;9.180;2023-10-31T09:43:28;4.60;;;1.10;;
422;SDS011;198;48.752;9.180;2023-10-31T09:45:53;0.80;;;0.70;;
422;SDS011;198;48.752;9.180;2023-10-31T09:48:19;3.47;;;0.90;;
422;SDS011;198;48.752;9.180;2023-10-31T09:50:45;2.27;;;0.67;;
422;SDS011;198;48.752;9.180;2023-10-31T09:53:11;2.33;;;0.77;;
422;SDS011;198;48.752;9.180;2023-10-31T09:55:39;4.00;;;0.93;;
422;SDS011;198;48.752;9.180;2023-10-31T09:58:05;3.80;;;0.90;;
422;SDS011;198;48.752;9.180;2023-10-31T10:00:30;1.93;;;1.03;;
422;SDS011;198;48.752;9.180;2023-10-31T10:02:56;1.70;;;1.03;;
422;SDS011;198;48.752;9.180;2023-10-31T10:05:22;10.23;;;1.60;;
422;SDS011;198;48.752;9.180;2023-10-31T10:07:48;3.83;;;1.30;;
422;SDS011;198;48.752;9.180;2023-10-31T10:10:15;3.23;;;0.97;;
422;SDS011;198;48.752;9.180;2023-10-31T10:12:41;1.60;;;1.30;;
422;SDS011;198;48.752;9.180;2023-10-31T10:15:08;0.97;;;0.70;;
422;SDS011;198;48.752;9.180;2023-10-31T10:17:35;5.40;;;1.33;;
422;SDS011;198;48.752;9.180;2023-10-31T10:20:07;4.23;;;1.10;;
422;SDS011;198;48.752;9.180;2023-10-31T10:22:40;11.97;;;1.13;;
422;SDS011;198;48.752;9.180;2023-10-31T10:25:08;8.97;;;0.90;;
422;SDS011;198;48.752;9.180;2023-10-31T10:27:34;3.83;;;1.07;;
422;SDS011;198;48.752;9.180;2023-10-31T10:30:01;3.70;;;0.93;;
422;SDS011;198;48.752;9.180;2023-10-31T10:32:28;3.30;;;1.17;;
422;SDS011;198;48.752;9.180;2023-10-31T10:34:54;5.23;;;1.13;;
422;SDS011;198;48.752;9.180;2023-10-31T10:37:20;2.97;;;0.93;;
422;SDS011;198;48.752;9.180;2023-10-31T10:39:48;4.43;;;0.80;;
422;SDS011;198;48.752;9.180;2023-10-31T10:42:21;5.13;;;1.20;;
422;SDS011;198;48.752;9.180;2023-10-31T10:45:01;4.20;;;0.80;;
422;SDS011;198;48.752;9.180;2023-10-31T10:47:29;5.73;;;0.90;;
422;SDS011;198;48.752;9.180;2023-10-31T10:49:58;5.97;;;1.67;;
422;SDS011;198;48.752;9.180;2023-10-31T10:52:30;10.53;;;1.00;;
422;SDS011;198;48.752;9.180;2023-10-31T10:55:08;1.40;;;0.77;;
422;SDS011;198;48.752;9.180;2023-10-31T10:57:38;3.23;;;2.70;;
422;SDS011;198;48.752;9.180;2023-10-31T11:00:08;11.00;;;1.63;;
422;SDS011;198;48.752;9.180;2023-10-31T11:02:38;1.20;;;0.90;;
422;SDS011;198;48.752;9.180;2023-10-31T11:05:07;7.77;;;0.90;;
422;SDS011;198;48.752;9.180;2023-10-31T11:07:34;1.40;;;1.10;;
422;SDS011;198;48.752;9.180;2023-10-31T11:10:01;4.10;;;1.03;;
422;SDS011;198;48.752;9.180;2023-10-31T11:12:29;1.83;;;0.80;;
422;SDS011;198;48.752;9.180;2023-10-31T11:14:55;3.80;;;0.90;;
422;SDS011;198;48.752;9.180;2023-10-31T11:17:27;7.13;;;1.10;;
422;SDS011;198;48.752;9.180;2023-10-31T11:19:59;4.30;;;0.93;;
422;SDS011;198;48.752;9.180;2023-10-31T11:22:25;2.50;;;1.00;;
422;SDS011;198;48.752;9.180;2023-10-31T11:25:01;8.07;;;1.60;;
422;SDS011;198;48.752;9.180;2023-10-31T11:27:27;1.70;;;0.80;;
422;SDS011;198;48.752;9.180;2023-10-31T11:29:52;3.80;;;1.10;;
422;SDS011;198;48.752;9.180;2023-10-31T11:32:19;3.23;;;1.07;;
422;SDS011;198;48.752;9.180;2023-10-31T11:34:47;2.50;;;1.10;;
422;SDS011;198;48.752;9.180;2023-10-31T11:37:20;4.80;;;1.23;;
422;SDS011;198;48.752;9.180;2023-10-31T11:42:53;2.10;;;1.13;;
422;SDS011;198;48.752;9.180;2023-10-31T11:45:33;1.70;;;0.83;;
422;SDS011;198;48.752;9.180;2023-10-31T11:48:00;2.40;;;1.00;;
422;SDS011;198;48.752;9.180;2023-10-31T11:50:26;1.17;;;0.80;;
422;SDS011;198;48.752;9.180;2023-10-31T11:52:58;1.63;;;0.97;;
422;SDS011;198;48.752;9.180;2023-10-31T11:55:32;3.17;;;0.87;;
422;SDS011;198;48.752;9.180;2023-10-31T11:58:16;3.40;;;0.70;;
422;SDS011;198;48.752;9.180;2023-10-31T12:00:43;1.37;;;0.80;;
422;SDS011;198;48.752;9.180;2023-10-31T12:03:10;1.00;;;0.57;;
422;SDS011;198;48.752;9.180;2023-10-31T12:05:35;1.17;;;0.60;;
422;SDS011;198;48.752;9.180;2023-10-31T12:08:01;1.30;;;0.70;;
422;SDS011;198;48.752;9.180;2023-10-31T12:10:28;0.70;;;0.60;;
422;SDS011;198;48.752;9.180;2023-10-31T12:12:55;0.60;;;0.50;;
422;SDS011;198;48.752;9.180;2023-10-31T12:15:23;1.37;;;0.77;;
422;SDS011;198;48.752;9.180;2023-10-31T12:17:49;1.73;;;0.80;;
422;SDS011;198;48.752;9.180;2023-10-31T12:20:14;5.80;;;0.70;;
422;SDS011;198;48.752;9.180;2023-10-31T12:22:43;0.97;;;0.70;;
422;SDS011;198;48.752;9.180;2023-10-31T12:25:09;0.50;;;0.50;;
422;SDS011;198;48.752;9.180;2023-10-31T12:27:42;2.20;;;0.70;;
422;SDS011;198;48.752;9.180;2023-10-31T12:30:15;7.90;;;1.00;;
422;SDS011;198;48.752;9.180;2023-10-31T12:32:42;0.93;;;0.60;;
422;SDS011;198;48.752;9.180;2023-10-31T12:35:12;1.30;;;0.90;;
422;SDS011;198;48.752;9.180;2023-10-31T12:37:48;0.80;;;0.53;;
422;SDS011;198;48.752;9.180;2023-10-31T12:40:18;0.77;;;0.67;;
422;SDS011;198;48.752;9.180;2023-10-31T12:42:45;0.93;;;0.60;;
422;SDS011;198;48.752;9.180;2023-10-31T12:45:12;1.40;;;0.77;;
422;SDS011;198;48.752;9.180;2023-10-31T12:47:39;1.47;;;0.70;;
422;SDS011;198;48.752;9.180;2023-10-31T12:50:05;1.97;;;0.87;;
422;SDS011;198;48.752;9.180;2023-10-31T12:52:50;3.03;;;1.10;;
422;SDS011;198;48.752;9.180;2023-10-31T12:55:18;1.90;;;0.80;;
422;SDS011;198;48.752;9.180;2023-10-31T12:57:45;2.10;;;0.90;;
422;SDS011;198;48.752;9.180;2023-10-31T13:00:11;2.17;;;0.70;;
422;SDS011;198;48.752;9.180;2023-10-31T13:02:41;2.30;;;1.10;;
422;SDS011;198;48.752;9.180;2023-10-31T13:05:11;3.50;;;0.70;;
422;SDS011;198;48.752;9.180;2023-10-31T13:07:37;3.27;;;0.97;;
422;SDS011;198;48.752;9.180;2023-10-31T13:10:04;2.10;;;0.93;;
422;SDS011;198;48.752;9.180;2023-10-31T13:12:31;0.63;;;0.60;;
422;SDS011;198;48.752;9.180;2023-10-31T13:14:56;0.63;;;0.53;;
422;SDS011;198;48.752;9.180;2023-10-31T13:17:22;1.23;;;0.60;;
422;SDS011;198;48.752;9.180;2023-10-31T13:19:47;11.10;;;1.30;;
422;SDS011;198;48.752;9.180;2023-10-31T13:22:13;0.93;;;0.60;;
422;SDS011;198;48.752;9.180;2023-10-31T13:24:39;2.73;;;0.70;;
422;SDS011;198;48.752;9.180;2023-10-31T13:27:05;0.80;;;0.80;;
422;SDS011;198;48.752;9.180;2023-10-31T13:29:31;1.80;;;0.87;;
422;SDS011;198;48.752;9.180;2023-10-31T13:31:58;0.60;;;0.50;;
422;SDS011;198;48.752;9.180;2023-10-31T13:34:23;3.00;;;1.10;;
422;SDS011;198;48.752;9.180;2023-10-31T13:36:49;1.00;;;0.70;;
422;SDS011;198;48.752;9.180;2023-10-31T13:39:14;0.90;;;0.80;;
422;SDS011;198;48.752;9.180;2023-10-31T13:41:40;0.60;;;0.60;;
422;SDS011;198;48.752;9.180;2023-10-31T13:44:05;1.90;;;0.90;;
422;SDS011;198;48.752;9.180;2023-10-31T13:46:31;1.03;;;0.80;;
422;SDS011;198;48.752;9.180;2023-10-31T13:48:56;0.73;;;0.67;;
422;SDS011;198;48.752;9.180;2023-10-31T13:51:22;0.60;;;0.50;;
422;SDS011;198;48.752;9.180;2023-10-31T13:53:47;0.93;;;0.90;;
422;SDS011;198;48.752;9.180;2023-10-31T13:56:15;1.90;;;0.70;;
422;SDS011;198;48.752;9.180;2023-10-31T13:58:40;0.73;;;0.67;;
422;SDS011;198;48.752;9.180;2023-10-31T14:01:06;1.33;;;0.90;;
422;SDS011;198;48.752;9.180;2023-10-31T14:03:31;1.17;;;0.77;;
422;SDS011;198;48.752;9.180;2023-10-31T14:05:57;2.80;;;0.80;;
422;SDS011;198;48.752;9.180;2023-10-31T14:08:22;1.97;;;0.60;;
422;SDS011;198;48.752;9.180;2023-10-31T14:10:48;0.97;;;0.67;;
422;SDS011;198;48.752;9.180;2023-10-31T14:13:13;0.77;;;0.50;;
422;SDS011;198;48.752;9.180;2023-10-31T14:15:39;1.40;;;0.50;;
422;SDS011;198;48.752;9.180;2023-10-31T14:18:05;1.07;;;0.67;;
422;SDS011;198;48.752;9.180;2023-10-31T14:20:32;0.70;;;0.60;;
422;SDS011;198;48.752;9.180;2023-10-31T14:22:58;0.60;;;0.50;;
422;SDS011;198;48.752;9.180;2023-10-31T14:25:24;0.60;;;0.53;;
422;SDS011;198;48.752;9.180;2023-10-31T14:27:49;1.43;;;0.90;;
422;SDS011;198;48.752;9.180;2023-10-31T14:30:15;0.87;;;0.70;;
422;SDS011;198;48.752;9.180;2023-10-31T14:32:40;0.70;;;0.50;;
422;SDS011;198;48.752;9.180;2023-10-31T14:35:06;0.53;;;0.50;;
422;SDS011;198;48.752;9.180;2023-10-31T14:37:33;3.20;;;0.97;;
422;SDS011;198;48.752;9.180;2023-10-31T14:39:59;0.70;;;0.60;;
422;SDS011;198;48.752;9.180;2023-10-31T14:42:25;0.80;;;0.70;;
422;SDS011;198;48.752;9.180;2023-10-31T14:44:51;0.80;;;0.70;;
422;SDS011;198;48.752;9.180;2023-10-31T14:47:17;0.83;;;0.60;;
422;SDS011;198;48.752;9.180;2023-10-31T14:49:43;1.63;;;0.80;;
422;SDS011;198;48.752;9.180;2023-10-31T14:52:09;0.73;;;0.67;;
422;SDS011;198;48.752;9.180;2023-10-31T14:54:34;1.40;;;0.93;;
422;SDS011;198;48.752;9.180;2023-10-31T14:57:03;1.07;;;0.90;;
422;SDS011;198;48.752;9.180;2023-10-31T14:59:29;0.70;;;0.67;;
422;SDS011;198;48.752;9.180;2023-10-31T15:01:54;4.63;;;0.90;;
422;SDS011;198;48.752;9.180;2023-10-31T15:04:20;3.93;;;1.13;;
422;SDS011;198;48.752;9.180;2023-10-31T15:06:45;2.23;;;0.70;;
422;SDS011;198;48.752;9.180;2023-10-31T15:09:11;1.90;;;0.70;;
422;SDS011;198;48.752;9.180;2023-10-31T15:11:36;0.70;;;0.60;;
422;SDS011;198;48.752;9.180;2023-10-31T15:14:02;3.27;;;0.90;;
422;SDS011;198;48.752;9.180;2023-10-31T15:16:28;1.87;;;0.70;;
422;SDS011;198;48.752;9.180;2023-10-31T15:18:53;3.07;;;0.70;;
422;SDS011;198;48.752;9.180;2023-10-31T15:21:19;4.63;;;0.80;;
422;SDS011;198;48.752;9.180;2023-10-31T15:23:45;0.70;;;0.60;;
422;SDS011;198;48.752;9.180;2023-10-31T15:26:11;1.03;;;0.70;;
422;SDS011;198;48.752;9.180;2023-10-31T15:28:38;2.67;;;0.90;;
422;SDS011;198;48.752;9.180;2023-10-31T15:31:04;1.03;;;0.70;;
422;SDS011;198;48.752;9.180;2023-10-31T15:33:30;1.60;;;0.90;;
422;SDS011;198;48.752;9.180;2023-10-31T15:35:56;0.73;;;0.67;;
422;SDS011;198;48.752;9.180;2023-10-31T15:38:22;1.13;;;0.90;;
422;SDS011;198;48.752;9.180;2023-10-31T15:40:47;3.00;;;0.73;;
422;SDS011;198;48.752;9.180;2023-10-31T15:43:13;0.97;;;0.73;;